Time;durP1;ratioP1;P1;durP2;ratioP2;P2;SDS_P1;SDS_P2;PMS_P1;PMS_P2;Temp;Humidity;BMP_temperature;BMP_pressure;BME280_temperature;BME280_humidity;BME280_pressure;Samples;Min_cycle;Max_cycle;Signal;HPM_P1;HPM_P2
2023/04/08 00:00:54;;;;;;;26.60;13.00;;;;;;;5.65;94.73;101118.63;110695;1206;139218;-64
2023/04/08 00:03:20;;;;;;;28.50;13.70;;;;;;;5.62;94.86;101118.32;111085;1206;97795;-64
2023/04/08 00:05:45;;;;;;;22.90;12.40;;;;;;;5.58;94.86;101124.92;110811;1211;140145;-65
2023/04/08 00:08:12;;;;;;;27.50;13.30;;;;;;;5.55;94.75;101127.98;110941;1209;100368;-64
2023/04/08 00:10:37;;;;;;;27.00;13.00;;;;;;;5.51;94.84;101129.28;110976;1209;98961;-65
2023/04/08 00:13:05;;;;;;;24.50;13.30;;;;;;;5.48;94.74;101131.45;110792;1211;139633;-64
2023/04/08 00:15:31;;;;;;;26.70;12.80;;;;;;;5.46;94.67;101133.61;110932;1206;100388;-64
2023/04/08 00:17:56;;;;;;;24.90;12.10;;;;;;;5.42;94.76;101134.55;110873;1211;139032;-64
2023/04/08 00:20:23;;;;;;;23.40;11.90;;;;;;;5.40;94.78;101138.85;111012;1206;98967;-64
2023/04/08 00:22:48;;;;;;;24.20;12.50;;;;;;;5.37;94.83;101149.16;111104;1211;99045;-64
2023/04/08 00:25:13;;;;;;;22.00;11.70;;;;;;;5.35;94.62;101157.00;110906;1206;139330;-64
2023/04/08 00:27:39;;;;;;;24.30;12.00;;;;;;;5.33;94.70;101161.10;111000;1211;99020;-64
2023/04/08 00:30:05;;;;;;;31.10;13.50;;;;;;;5.34;94.80;101155.06;110794;1210;139069;-65
2023/04/08 00:32:30;;;;;;;29.00;13.50;;;;;;;5.34;94.86;101155.06;110997;1209;99005;-64
2023/04/08 00:34:55;;;;;;;24.10;12.60;;;;;;;5.33;94.98;101160.92;110967;1211;99041;-64
2023/04/08 00:37:22;;;;;;;29.20;13.10;;;;;;;5.33;94.80;101165.53;110833;1206;140831;-64
2023/04/08 00:39:47;;;;;;;26.00;13.10;;;;;;;5.33;94.71;101161.09;110884;1211;99161;-65
2023/04/08 00:42:12;;;;;;;22.10;11.50;;;;;;;5.33;94.77;101160.73;110823;1211;139893;-64
2023/04/08 00:44:38;;;;;;;24.30;11.70;;;;;;;5.30;94.68;101164.49;110848;1206;99014;-66
2023/04/08 00:47:03;;;;;;;24.40;12.40;;;;;;;5.28;94.85;101164.17;111049;1222;98940;-64
2023/04/08 00:49:32;;;;;;;23.40;12.20;;;;;;;5.25;94.58;101163.86;110703;1212;140629;-64
2023/04/08 00:51:58;;;;;;;24.70;11.80;;;;;;;5.20;94.81;101165.35;111009;1211;99787;-64
2023/04/08 00:54:23;;;;;;;22.90;12.00;;;;;;;5.16;94.65;101169.33;110761;1211;140329;-64
2023/04/08 00:56:49;;;;;;;23.00;11.70;;;;;;;5.13;94.75;101166.70;110951;1206;99021;-64
2023/04/08 00:59:17;;;;;;;23.30;11.40;;;;;;;5.10;94.74;101165.33;110957;1218;99418;-64
2023/04/08 01:02:00;;;;;;;24.30;11.80;;;;;;;5.08;94.61;101166.59;110903;1211;99117;-64
2023/04/08 01:04:43;;;;;;;25.70;12.20;;;;;;;5.03;94.70;101172.33;110918;1209;107920;-64
2023/04/08 01:07:21;;;;;;;23.00;12.40;;;;;;;5.00;94.84;101175.91;110728;1209;139468;-64
2023/04/08 01:09:53;;;;;;;28.00;12.90;;;;;;;4.96;94.59;101178.80;110875;1209;99032;-64
2023/04/08 01:12:26;;;;;;;24.80;12.30;;;;;;;4.92;94.81;101180.79;111043;1209;139853;-65
2023/04/08 01:14:58;;;;;;;27.10;11.40;;;;;;;4.88;94.71;101183.48;110914;1206;99967;-64
2023/04/08 01:17:30;;;;;;;25.20;12.30;;;;;;;4.84;94.60;101188.48;110841;1209;139273;-63
2023/04/08 01:19:58;;;;;;;25.70;11.90;;;;;;;4.82;94.84;101192.58;110864;1212;98977;-65
2023/04/08 01:22:31;;;;;;;25.60;11.70;;;;;;;4.80;94.76;101194.20;110954;1211;100523;-65
2023/04/08 01:25:03;;;;;;;30.10;11.40;;;;;;;4.77;94.78;101196.70;110880;1208;138794;-65
2023/04/08 01:27:31;;;;;;;26.10;13.20;;;;;;;4.75;94.75;101198.67;110977;1211;99637;-65
2023/04/08 01:29:58;;;;;;;26.00;12.60;;;;;;;4.72;94.74;101199.06;110768;1206;138969;-65
2023/04/08 01:32:26;;;;;;;25.90;12.10;;;;;;;4.68;94.66;101200.52;110931;1211;99070;-65
2023/04/08 01:34:53;;;;;;;26.20;13.80;;;;;;;4.66;94.81;101202.14;111020;1206;99581;-65
2023/04/08 01:37:19;;;;;;;30.30;13.60;;;;;;;4.64;94.68;101202.69;110937;1209;138874;-63
2023/04/08 01:39:46;;;;;;;23.30;12.60;;;;;;;4.60;94.55;101203.97;110890;1208;99176;-64
2023/04/08 01:42:12;;;;;;;26.60;13.40;;;;;;;4.56;94.71;101205.95;110779;1224;139827;-64
2023/04/08 01:44:39;;;;;;;26.30;13.50;;;;;;;4.52;94.63;101207.92;110998;1209;99006;-64
2023/04/08 01:47:06;;;;;;;24.60;13.40;;;;;;;4.49;94.66;101211.33;110969;1211;111457;-64
2023/04/08 01:49:31;;;;;;;30.10;13.60;;;;;;;4.45;94.73;101214.55;110819;1208;138899;-65
2023/04/08 01:51:57;;;;;;;29.70;13.80;;;;;;;4.42;94.56;101214.75;111074;1206;100562;-65
2023/04/08 01:54:23;;;;;;;27.90;12.50;;;;;;;4.40;94.60;101217.08;110865;1211;139977;-65
2023/04/08 01:56:51;;;;;;;27.80;13.70;;;;;;;4.37;94.61;101219.22;110978;1211;99051;-65
2023/04/08 01:59:20;;;;;;;31.60;13.10;;;;;;;4.34;94.39;101221.73;111043;1211;98935;-65
2023/04/08 02:01:46;;;;;;;28.10;13.80;;;;;;;4.31;94.67;101224.58;110955;1210;107958;-65
2023/04/08 02:04:12;;;;;;;28.30;14.20;;;;;;;4.30;94.58;101228.48;110923;1209;98999;-65
2023/04/08 02:06:38;;;;;;;31.20;15.20;;;;;;;4.27;94.39;101232.58;110944;1209;140966;-65
2023/04/08 02:09:04;;;;;;;30.20;14.50;;;;;;;4.25;94.59;101241.80;110984;1206;99908;-65
2023/04/08 02:11:30;;;;;;;26.30;13.20;;;;;;;4.22;94.57;101244.12;110813;1211;139528;-65
2023/04/08 02:13:56;;;;;;;26.50;13.70;;;;;;;4.21;94.55;101247.14;110960;1211;100610;-65
2023/04/08 02:16:28;;;;;;;37.90;15.10;;;;;;;4.17;94.42;101246.80;110986;1206;99072;-65
2023/04/08 02:19:08;;;;;;;31.10;13.60;;;;;;;4.13;94.57;101248.42;110821;1208;138809;-65
2023/04/08 02:21:49;;;;;;;32.70;15.30;;;;;;;4.11;94.51;101250.92;110933;1211;107763;-65
2023/04/08 02:24:16;;;;;;;34.40;15.10;;;;;;;4.08;94.59;101253.77;110776;1227;138971;-65
2023/04/08 02:26:43;;;;;;;33.50;14.60;;;;;;;4.04;94.53;101252.73;110918;1207;99309;-65
2023/04/08 02:29:14;;;;;;;29.30;14.90;;;;;;;4.01;94.55;101254.17;110946;1209;98983;-65
2023/04/08 02:31:42;;;;;;;33.90;15.50;;;;;;;3.98;94.71;101259.14;111041;1209;140229;-65
2023/04/08 02:34:10;;;;;;;35.40;15.90;;;;;;;3.95;94.56;101263.77;110923;1211;106865;-65
2023/04/08 02:36:36;;;;;;;34.10;15.60;;;;;;;3.93;94.60;101268.20;111067;1226;138873;-65
2023/04/08 02:39:04;;;;;;;28.70;14.60;;;;;;;3.90;94.56;101270.52;110923;1206;99034;-65
2023/04/08 02:41:30;;;;;;;33.00;14.80;;;;;;;3.87;94.66;101276.36;110800;1205;139548;-65
2023/04/08 02:43:56;;;;;;;34.40;15.80;;;;;;;3.85;94.60;101282.02;111048;1211;99058;-65
2023/04/08 02:46:21;;;;;;;28.90;14.30;;;;;;;3.83;94.53;101284.16;110985;1210;98933;-65
2023/04/08 02:48:46;;;;;;;33.30;15.50;;;;;;;3.81;94.63;101285.95;110880;1209;139376;-65
2023/04/08 02:51:12;;;;;;;31.20;16.10;;;;;;;3.78;94.69;101287.73;110942;1211;99184;-65
2023/04/08 02:53:37;;;;;;;33.30;14.40;;;;;;;3.76;94.66;101288.80;110823;1212;140471;-64
2023/04/08 02:56:02;;;;;;;30.90;15.70;;;;;;;3.75;94.50;101296.05;110960;1209;99153;-64
2023/04/08 02:58:27;;;;;;;31.20;15.70;;;;;;;3.71;94.77;101300.30;111037;1211;99606;-64
2023/04/08 03:00:53;;;;;;;30.70;15.30;;;;;;;3.68;94.72;101302.80;110847;1220;139342;-64
2023/04/08 03:03:18;;;;;;;42.20;16.30;;;;;;;3.67;94.58;101308.99;110971;1206;98947;-65
2023/04/08 03:05:43;;;;;;;31.10;15.90;;;;;;;3.65;94.58;101314.66;110812;1209;139934;-64
2023/04/08 03:08:09;;;;;;;29.30;14.90;;;;;;;3.63;94.53;101315.37;110925;1209;97786;-64
2023/04/08 03:10:34;;;;;;;27.00;14.20;;;;;;;3.60;94.69;101316.09;110973;1206;98955;-64
2023/04/08 03:12:59;;;;;;;35.70;17.20;;;;;;;3.57;94.46;101320.52;110828;1206;140133;-64
2023/04/08 03:15:25;;;;;;;30.20;16.00;;;;;;;3.53;94.70;101321.59;111010;1211;99037;-64
2023/04/08 03:17:50;;;;;;;30.40;15.50;;;;;;;3.51;94.59;101324.61;110828;1208;139251;-64
2023/04/08 03:20:15;;;;;;;30.50;15.20;;;;;;;3.49;94.57;101326.73;110923;1209;99014;-64
2023/04/08 03:22:41;;;;;;;35.60;16.60;;;;;;;3.47;94.79;101330.98;110946;1208;97905;-64
2023/04/08 03:25:06;;;;;;;38.40;16.30;;;;;;;3.44;94.60;101334.00;110867;1211;140849;-64
2023/04/08 03:27:32;;;;;;;35.20;15.70;;;;;;;3.41;94.50;101334.18;111053;1206;99018;-61
2023/04/08 03:29:57;;;;;;;35.60;15.70;;;;;;;3.36;94.51;101334.20;110855;1206;139136;-61
2023/04/08 03:32:23;;;;;;;34.60;15.20;;;;;;;3.33;94.43;101336.33;110907;1211;99786;-62
2023/04/08 03:34:50;;;;;;;36.30;17.70;;;;;;;3.29;94.45;101335.27;111028;1208;98921;-61
2023/04/08 03:37:16;;;;;;;36.00;17.50;;;;;;;3.27;94.46;101335.27;110802;1206;139926;-60
2023/04/08 03:39:41;;;;;;;37.70;17.10;;;;;;;3.26;94.77;101332.80;110951;1211;99048;-61
2023/04/08 03:42:07;;;;;;;32.50;16.20;;;;;;;3.26;94.52;101333.88;110873;1206;139376;-61
2023/04/08 03:44:32;;;;;;;35.20;16.30;;;;;;;3.30;94.77;101335.63;110955;1206;98937;-61
2023/04/08 03:46:57;;;;;;;38.20;16.60;;;;;;;3.30;94.67;101340.05;110966;1206;98974;-61
2023/04/08 03:49:22;;;;;;;32.40;16.00;;;;;;;3.33;94.79;101341.09;110945;1211;140375;-61
2023/04/08 03:51:49;;;;;;;37.10;16.60;;;;;;;3.33;94.73;101341.63;110895;1206;98958;-61
2023/04/08 03:54:14;;;;;;;34.60;17.00;;;;;;;3.31;94.73;101344.28;110946;1208;139886;-60
2023/04/08 03:56:39;;;;;;;37.50;16.80;;;;;;;3.29;94.74;101345.17;110858;1211;99068;-62
2023/04/08 03:59:05;;;;;;;40.20;17.60;;;;;;;3.29;94.64;101347.45;110844;1211;97852;-62
2023/04/08 04:01:31;;;;;;;35.80;15.90;;;;;;;3.29;94.70;101352.59;110823;1209;139709;-61
2023/04/08 04:03:57;;;;;;;36.00;17.20;;;;;;;3.25;94.63;101353.83;110941;1208;99063;-60
2023/04/08 04:06:22;;;;;;;38.30;18.40;;;;;;;3.23;94.58;101356.84;110808;1206;139777;-61
2023/04/08 04:08:49;;;;;;;36.90;18.30;;;;;;;3.22;94.83;101358.08;111026;1211;99044;-60
2023/04/08 04:11:15;;;;;;;37.70;18.30;;;;;;;3.21;94.59;101361.44;110999;1205;99028;-61
2023/04/08 04:13:40;;;;;;;37.10;16.00;;;;;;;3.20;94.74;101364.27;110826;1206;140576;-61
2023/04/08 04:16:05;;;;;;;36.60;16.90;;;;;;;3.19;94.78;101364.09;111004;1208;98986;-61
2023/04/08 04:18:30;;;;;;;34.00;17.00;;;;;;;3.16;94.76;101361.98;110861;1211;140229;-61
2023/04/08 04:20:56;;;;;;;33.60;16.50;;;;;;;3.14;94.67;101363.73;111038;1211;100291;-61
2023/04/08 04:23:23;;;;;;;34.60;16.30;;;;;;;3.11;94.57;101364.98;110750;1211;139368;-61
2023/04/08 04:25:49;;;;;;;36.80;17.10;;;;;;;3.09;94.67;101371.16;110979;1211;97865;-59
2023/04/08 04:28:14;;;;;;;34.10;16.30;;;;;;;3.08;94.56;101373.98;110942;1211;99181;-59
2023/04/08 04:30:39;;;;;;;36.70;17.50;;;;;;;3.05;94.61;101375.58;110904;1211;138756;-60
2023/04/08 04:33:05;;;;;;;37.20;18.00;;;;;;;3.04;94.66;101380.00;110867;1208;99021;-61
2023/04/08 04:35:31;;;;;;;39.90;18.20;;;;;;;3.01;94.51;101381.23;110879;1210;140388;-60
2023/04/08 04:37:56;;;;;;;38.50;17.30;;;;;;;3.01;94.82;101383.52;111018;1209;97755;-61
2023/04/08 04:40:22;;;;;;;40.80;19.50;;;;;;;3.02;94.67;101382.47;110925;1211;99017;-60
2023/04/08 04:42:47;;;;;;;40.40;17.70;;;;;;;2.99;94.58;101384.06;110877;1211;140645;-60
2023/04/08 04:45:13;;;;;;;44.50;20.40;;;;;;;2.98;94.63;101387.23;110995;1206;99015;-60
2023/04/08 04:47:38;;;;;;;40.10;18.40;;;;;;;2.99;94.84;101390.06;110826;1209;139931;-60
2023/04/08 04:50:04;;;;;;;37.20;17.60;;;;;;;2.99;94.65;101394.83;110939;1209;98996;-60
2023/04/08 04:52:30;;;;;;;38.10;17.40;;;;;;;2.97;94.79;101392.01;110935;1207;99463;-60
2023/04/08 04:54:56;;;;;;;37.70;18.10;;;;;;;2.95;94.63;101399.77;110770;1205;140753;-60
2023/04/08 04:57:22;;;;;;;39.60;19.30;;;;;;;2.93;94.50;101404.36;111155;1206;97869;-60
2023/04/08 04:59:47;;;;;;;38.90;18.60;;;;;;;2.94;94.60;101404.19;110841;1209;140044;-60
2023/04/08 05:02:12;;;;;;;44.30;19.40;;;;;;;2.97;94.75;101408.08;110892;1211;98804;-60
2023/04/08 05:04:38;;;;;;;39.10;18.30;;;;;;;3.01;94.79;101410.89;111032;1211;99102;-60
2023/04/08 05:07:03;;;;;;;39.70;19.00;;;;;;;3.06;94.94;101406.65;110865;1206;140538;-60
2023/04/08 05:09:28;;;;;;;37.30;18.60;;;;;;;3.12;94.97;101411.95;111005;1220;98955;-59
2023/04/08 05:11:54;;;;;;;40.30;19.60;;;;;;;3.18;95.01;101411.95;110757;1206;139623;-60
2023/04/08 05:14:19;;;;;;;41.50;19.20;;;;;;;3.27;95.37;101414.59;111008;1208;99075;-59
2023/04/08 05:16:44;;;;;;;40.90;19.20;;;;;;;3.37;95.02;101418.46;110950;1211;99030;-59
2023/04/08 05:19:10;;;;;;;41.10;19.30;;;;;;;3.43;95.28;101416.69;110870;1211;139046;-59
2023/04/08 05:21:35;;;;;;;44.30;17.90;;;;;;;3.48;95.08;101415.62;110973;1211;98958;-59
2023/04/08 05:24:00;;;;;;;43.40;18.60;;;;;;;3.50;95.07;101416.31;110823;1208;140144;-59
2023/04/08 05:26:26;;;;;;;40.60;19.00;;;;;;;3.55;94.99;101419.66;110999;1211;99038;-61
2023/04/08 05:28:51;;;;;;;40.30;18.30;;;;;;;3.62;95.31;101425.48;110952;1209;112833;-61
2023/04/08 05:31:18;;;;;;;43.00;20.40;;;;;;;3.71;95.44;101424.92;110779;1211;139460;-59
2023/04/08 05:33:43;;;;;;;43.80;20.20;;;;;;;3.79;95.30;101429.14;111008;1212;99004;-61
2023/04/08 05:36:12;;;;;;;35.70;18.10;;;;;;;3.86;95.16;101427.52;110945;1205;139455;-61
2023/04/08 05:38:39;;;;;;;42.60;19.90;;;;;;;3.90;95.20;101430.34;110944;1211;112225;-61
2023/04/08 05:41:04;;;;;;;41.80;19.90;;;;;;;3.95;95.09;101431.03;110954;1211;99040;-62
2023/04/08 05:43:32;;;;;;;43.50;20.90;;;;;;;3.99;95.33;101435.27;110769;1205;138595;-61
2023/04/08 05:45:57;;;;;;;39.30;20.10;;;;;;;4.04;95.37;101435.42;110883;1222;98936;-61
2023/04/08 05:48:22;;;;;;;39.30;20.30;;;;;;;4.10;95.51;101441.75;110879;1208;139265;-61
2023/04/08 05:50:47;;;;;;;39.70;19.40;;;;;;;4.13;95.40;101442.80;110968;1211;99035;-61
2023/04/08 05:53:13;;;;;;;42.50;19.80;;;;;;;4.18;95.47;101443.14;110968;1206;98993;-61
2023/04/08 05:55:39;;;;;;;48.10;22.30;;;;;;;4.24;95.48;101449.13;110674;1207;140345;-61
2023/04/08 05:58:05;;;;;;;40.70;20.10;;;;;;;4.30;95.47;101450.88;110962;1209;98287;-61
2023/04/08 06:00:30;;;;;;;43.30;21.70;;;;;;;4.33;95.46;101451.20;110695;1208;138736;-61
2023/04/08 06:02:56;;;;;;;42.40;21.30;;;;;;;4.38;95.55;101462.68;110699;1209;98963;-61
2023/04/08 06:05:21;;;;;;;36.70;18.80;;;;;;;4.42;95.41;101464.27;110709;1206;138912;-61
2023/04/08 06:07:46;;;;;;;42.20;20.10;;;;;;;4.45;95.57;101463.00;110831;1210;99123;-61
2023/04/08 06:10:11;;;;;;;40.70;19.50;;;;;;;4.49;95.81;101464.04;110729;1211;98959;-59
2023/04/08 06:12:39;;;;;;;39.70;20.30;;;;;;;4.55;95.67;101464.72;110718;1211;139220;-62
2023/04/08 06:15:06;;;;;;;43.50;20.50;;;;;;;4.62;95.85;101465.92;110788;1211;113972;-60
2023/04/08 06:17:34;;;;;;;39.60;20.30;;;;;;;4.71;95.99;101475.06;112926;1205;142318;-60
2023/04/08 06:20:00;;;;;;;38.60;20.60;;;;;;;4.81;96.00;101478.20;112429;1206;108247;-61
2023/04/08 06:22:25;;;;;;;39.10;18.60;;;;;;;4.88;96.04;101480.27;110717;1211;99021;-61
2023/04/08 06:24:50;;;;;;;44.20;20.60;;;;;;;4.94;95.85;101486.08;110766;1209;138655;-60
2023/04/08 06:27:16;;;;;;;42.60;20.60;;;;;;;4.98;95.77;101488.88;110863;1211;99112;-61
2023/04/08 06:29:41;;;;;;;40.40;20.10;;;;;;;4.98;95.72;101492.59;110810;1211;139046;-62
2023/04/08 06:32:07;;;;;;;41.80;19.80;;;;;;;5.00;95.84;101495.95;110758;1211;99085;-61
2023/04/08 06:34:32;;;;;;;39.90;20.40;;;;;;;5.03;95.84;101495.04;110912;1209;98922;-62
2023/04/08 06:36:57;;;;;;;40.50;19.90;;;;;;;5.10;95.99;101499.24;110788;1220;138633;-60
2023/04/08 06:39:23;;;;;;;37.30;18.80;;;;;;;5.15;95.90;101503.11;110885;1206;99000;-61
2023/04/08 06:41:51;;;;;;;36.40;18.80;;;;;;;5.20;96.05;101503.74;110697;1211;140536;-61
2023/04/08 06:44:16;;;;;;;42.10;19.90;;;;;;;5.26;96.03;101512.91;110850;1211;101085;-62
2023/04/08 06:46:41;;;;;;;42.00;20.40;;;;;;;5.28;95.96;101517.15;110793;1211;98993;-60
2023/04/08 06:49:07;;;;;;;40.70;21.00;;;;;;;5.29;95.77;101513.23;110785;1205;139287;-61
2023/04/08 06:51:32;;;;;;;38.90;19.70;;;;;;;5.35;95.94;101519.22;110836;1211;99101;-61
2023/04/08 06:53:57;;;;;;;39.20;20.10;;;;;;;5.42;95.88;101522.17;110790;1206;139080;-60
2023/04/08 06:56:25;;;;;;;36.50;19.50;;;;;;;5.46;96.00;101521.78;110815;1212;99013;-61
2023/04/08 06:58:50;;;;;;;37.60;19.60;;;;;;;5.47;95.84;101520.70;110903;1223;98935;-61
2023/04/08 07:01:18;;;;;;;40.00;20.10;;;;;;;5.50;95.84;101519.27;110764;1211;138628;-60
2023/04/08 07:03:51;;;;;;;40.80;20.60;;;;;;;5.54;95.90;101521.36;110904;1211;99022;-60
2023/04/08 07:06:17;;;;;;;40.90;20.60;;;;;;;5.65;96.08;101526.05;110694;1211;139696;-60
2023/04/08 07:08:42;;;;;;;40.20;20.10;;;;;;;5.70;95.98;101527.96;110760;1211;98995;-60
2023/04/08 07:11:07;;;;;;;37.20;20.00;;;;;;;5.76;96.19;101535.52;110881;1208;99095;-60
2023/04/08 07:13:32;;;;;;;39.80;20.70;;;;;;;5.82;95.91;101535.83;110709;1211;139911;-60
2023/04/08 07:15:58;;;;;;;39.90;19.50;;;;;;;5.87;95.87;101536.50;110893;1211;98941;-60
2023/04/08 07:18:25;;;;;;;35.90;17.70;;;;;;;5.95;96.04;101540.53;110766;1211;139597;-59
2023/04/08 07:20:52;;;;;;;34.90;18.70;;;;;;;5.95;95.74;101540.70;110852;1208;99617;-59
2023/04/08 07:23:18;;;;;;;34.50;19.40;;;;;;;5.95;95.61;101542.65;110927;1211;99076;-59
2023/04/08 07:25:44;;;;;;;38.70;20.10;;;;;;;6.02;95.87;101544.00;111017;1211;138533;-62
2023/04/08 07:28:10;;;;;;;33.00;18.20;;;;;;;6.06;95.81;101546.98;110936;1208;99082;-60
2023/04/08 07:30:35;;;;;;;39.90;20.00;;;;;;;6.01;95.52;101550.74;110641;1218;139651;-60
2023/04/08 07:33:00;;;;;;;34.20;17.40;;;;;;;6.03;95.57;101549.48;110761;1211;98929;-60
2023/04/08 07:35:26;;;;;;;31.00;16.80;;;;;;;5.96;95.16;101552.75;110574;1211;140133;-60
2023/04/08 07:37:52;;;;;;;34.10;17.10;;;;;;;5.98;95.44;101552.20;110787;1211;99022;-60
2023/04/08 07:40:18;;;;;;;36.00;18.70;;;;;;;6.09;95.51;101553.86;113260;1205;97191;-60
2023/04/08 07:42:43;;;;;;;33.50;18.40;;;;;;;6.19;95.56;101555.70;113136;1208;140449;-61
2023/04/08 07:45:09;;;;;;;34.60;19.00;;;;;;;6.26;95.51;101555.45;111177;1211;99110;-61
2023/04/08 07:47:34;;;;;;;33.50;18.20;;;;;;;6.34;95.46;101560.67;110789;1206;138726;-61
2023/04/08 07:50:00;;;;;;;38.90;19.70;;;;;;;6.40;95.31;101561.67;110725;1211;99312;-60
2023/04/08 07:52:25;;;;;;;39.00;19.70;;;;;;;6.48;95.24;101560.87;110872;1211;98979;-61
2023/04/08 07:54:50;;;;;;;35.20;19.90;;;;;;;6.54;95.07;101569.52;110755;1211;140389;-60
2023/04/08 07:57:16;;;;;;;38.90;21.40;;;;;;;6.53;95.00;101569.16;110895;1211;99239;-60
2023/04/08 07:59:41;;;;;;;34.00;19.50;;;;;;;6.51;94.88;101571.67;110831;1210;140114;-60
2023/04/08 08:02:06;;;;;;;33.70;18.70;;;;;;;6.51;94.71;101576.46;110992;1216;99016;-61
2023/04/08 08:04:32;;;;;;;33.10;18.40;;;;;;;6.52;94.68;101578.59;110843;1212;97781;-65
2023/04/08 08:06:57;;;;;;;33.80;19.20;;;;;;;6.50;94.46;101584.81;110828;1211;139520;-60
2023/04/08 08:09:22;;;;;;;35.70;19.00;;;;;;;6.58;94.71;101585.27;110858;1211;99010;-61
2023/04/08 08:11:48;;;;;;;33.30;18.80;;;;;;;6.63;94.69;101589.30;110829;1211;142475;-60
2023/04/08 08:14:14;;;;;;;33.80;18.50;;;;;;;6.71;94.55;101592.20;110840;1206;98974;-61
2023/04/08 08:16:40;;;;;;;33.20;18.50;;;;;;;6.79;94.59;101592.46;110973;1212;98931;-60
2023/04/08 08:19:07;;;;;;;33.00;19.00;;;;;;;6.78;94.40;101592.48;110820;1211;140561;-61
2023/04/08 08:21:36;;;;;;;34.80;19.60;;;;;;;6.73;94.07;101596.08;110853;1211;98926;-61
2023/04/08 08:24:01;;;;;;;34.70;18.70;;;;;;;6.76;94.08;101597.12;110727;1211;139414;-60
2023/04/08 08:26:27;;;;;;;34.50;18.30;;;;;;;6.75;94.00;101599.08;110845;1207;99342;-60
2023/04/08 08:28:53;;;;;;;34.30;19.00;;;;;;;6.70;93.82;101605.19;110929;1209;99290;-61
2023/04/08 08:31:18;;;;;;;31.00;17.10;;;;;;;6.73;93.88;101604.96;111014;1211;139129;-61
2023/04/08 08:33:43;;;;;;;34.90;18.30;;;;;;;6.78;93.88;101605.08;110722;1212;99092;-61
2023/04/08 08:36:09;;;;;;;34.20;18.90;;;;;;;6.85;93.82;101607.67;110932;1211;141061;-60
2023/04/08 08:38:35;;;;;;;31.50;16.20;;;;;;;6.88;93.60;101604.79;110843;1211;98926;-61
2023/04/08 08:41:02;;;;;;;31.90;17.60;;;;;;;6.92;93.60;101608.29;110974;1211;99044;-61
2023/04/08 08:43:28;;;;;;;36.50;18.40;;;;;;;7.03;93.71;101608.67;110756;1211;139441;-61
2023/04/08 08:45:54;;;;;;;33.10;18.30;;;;;;;7.11;93.54;101602.52;111022;1211;98933;-61
2023/04/08 08:48:19;;;;;;;31.90;18.60;;;;;;;7.23;93.64;101605.20;110926;1211;140978;-61
2023/04/08 08:50:45;;;;;;;35.70;18.30;;;;;;;7.33;93.54;101605.04;110898;1211;98927;-61
2023/04/08 08:53:10;;;;;;;28.90;17.30;;;;;;;7.33;93.07;101605.05;110945;1211;99062;-61
2023/04/08 08:55:37;;;;;;;31.00;17.30;;;;;;;7.35;93.07;101605.55;110788;1221;139025;-61
2023/04/08 08:58:03;;;;;;;30.70;17.30;;;;;;;7.37;92.89;101606.41;110870;1212;99459;-60
2023/04/08 09:00:43;;;;;;;30.80;17.90;;;;;;;7.48;93.12;101605.00;110857;1209;139542;-61
2023/04/08 09:03:15;;;;;;;35.20;18.60;;;;;;;7.52;92.78;101606.90;110873;1211;99148;-60
2023/04/08 09:05:47;;;;;;;33.80;18.10;;;;;;;7.57;92.76;101609.48;110736;1206;140162;-60
2023/04/08 09:08:35;;;;;;;34.20;18.70;;;;;;;7.52;92.32;101612.95;111090;1212;99042;-60
2023/04/08 09:11:10;;;;;;;30.60;17.50;;;;;;;7.56;92.46;101620.19;110912;1210;99029;-59
2023/04/08 09:13:36;;;;;;;30.30;18.10;;;;;;;7.58;92.18;101619.61;110694;1211;138712;-60
2023/04/08 09:16:04;;;;;;;34.20;18.60;;;;;;;7.63;92.25;101621.30;110931;1206;99444;-61
2023/04/08 09:18:30;;;;;;;33.90;18.30;;;;;;;7.69;92.09;101619.25;110818;1211;139936;-60
2023/04/08 09:20:58;;;;;;;31.70;17.60;;;;;;;7.78;92.00;101624.27;110795;1212;97810;-60
2023/04/08 09:23:23;;;;;;;32.90;18.90;;;;;;;7.78;91.71;101622.30;110667;1205;141019;-60
2023/04/08 09:25:49;;;;;;;29.70;17.50;;;;;;;7.88;91.90;101618.20;113268;1208;97310;-60
2023/04/08 09:28:19;;;;;;;33.10;19.40;;;;;;;7.99;91.76;101620.67;113283;1206;97365;-60
2023/04/08 09:30:45;;;;;;;34.30;18.60;;;;;;;8.10;91.76;101621.20;112298;1211;140841;-60
2023/04/08 09:33:10;;;;;;;33.30;19.30;;;;;;;8.14;91.47;101617.74;110860;1211;98984;-60
2023/04/08 09:35:35;;;;;;;34.60;19.40;;;;;;;8.11;91.18;101623.15;110859;1212;139185;-59
2023/04/08 09:38:01;;;;;;;29.50;17.00;;;;;;;8.14;91.26;101624.70;110996;1211;98951;-60
2023/04/08 09:40:26;;;;;;;35.90;19.90;;;;;;;8.20;91.11;101626.20;111003;1212;99040;-60
2023/04/08 09:42:53;;;;;;;35.20;19.20;;;;;;;8.33;91.37;101624.02;110821;1211;140863;-61
2023/04/08 09:45:19;;;;;;;31.80;18.50;;;;;;;8.41;90.99;101623.70;110949;1211;99010;-60
2023/04/08 09:47:55;;;;;;;33.00;19.50;;;;;;;8.37;90.69;101628.77;110900;1210;141391;-59
2023/04/08 09:50:25;;;;;;;32.80;19.10;;;;;;;8.36;90.34;101627.19;111021;1212;99051;-61
2023/04/08 09:52:56;;;;;;;34.40;19.50;;;;;;;8.40;90.55;101629.23;111014;1207;98947;-61
2023/04/08 09:55:22;;;;;;;35.50;20.10;;;;;;;8.49;90.67;101624.08;110911;1211;139522;-61
2023/04/08 09:57:57;;;;;;;35.20;19.30;;;;;;;8.59;90.56;101622.81;111161;1220;98929;-61
2023/04/08 10:00:39;;;;;;;34.10;20.00;;;;;;;8.75;90.59;101623.91;110814;1211;140166;-60
2023/04/08 10:03:28;;;;;;;32.00;20.30;;;;;;;9.02;90.73;101623.37;110934;1219;99270;-61
2023/04/08 10:05:55;;;;;;;33.60;19.60;;;;;;;9.29;90.56;101617.08;110796;1210;141304;-61
2023/04/08 10:08:22;;;;;;;31.50;17.90;;;;;;;9.33;90.10;101618.40;113237;1206;98641;-61
2023/04/08 10:10:48;;;;;;;37.10;18.10;;;;;;;9.50;90.35;101621.58;113325;1206;97065;-61
2023/04/08 10:13:14;;;;;;;37.20;19.40;;;;;;;9.72;90.27;101619.98;111563;1211;140290;-61
2023/04/08 10:15:42;;;;;;;36.20;19.50;;;;;;;9.88;89.93;101617.27;110925;1212;99929;-61
2023/04/08 10:18:10;;;;;;;30.70;19.70;;;;;;;10.12;90.16;101619.33;110936;1219;139882;-60
2023/04/08 10:20:35;;;;;;;32.80;18.20;;;;;;;10.36;90.04;101625.34;110951;1211;100272;-61
2023/04/08 10:23:02;;;;;;;31.80;19.40;;;;;;;10.30;89.04;101624.61;110688;1212;100838;-61
2023/04/08 10:25:31;;;;;;;30.30;18.00;;;;;;;10.31;88.99;101626.36;111160;1211;143739;-61
2023/04/08 10:27:57;;;;;;;30.70;20.00;;;;;;;10.28;88.58;101630.00;110870;1207;111984;-61
2023/04/08 10:30:32;;;;;;;34.00;20.10;;;;;;;10.02;87.46;101627.80;110798;1211;139415;-61
2023/04/08 10:33:02;;;;;;;39.50;21.00;;;;;;;9.91;87.42;101633.26;110871;1206;108199;-60
2023/04/08 10:35:33;;;;;;;32.60;20.00;;;;;;;9.96;87.62;101631.16;110822;1212;141963;-61
2023/04/08 10:37:58;;;;;;;30.00;18.10;;;;;;;9.98;87.43;101631.29;111005;1208;99028;-60
2023/04/08 10:40:24;;;;;;;28.70;18.90;;;;;;;10.04;87.32;101632.39;110969;1211;99033;-61
2023/04/08 10:42:56;;;;;;;33.90;20.30;;;;;;;10.04;87.01;101628.64;111105;1212;140455;-61
2023/04/08 10:45:22;;;;;;;29.20;17.50;;;;;;;10.13;87.11;101630.38;111098;1212;97920;-61
2023/04/08 10:47:48;;;;;;;29.80;19.40;;;;;;;10.33;87.06;101627.73;110995;1212;140578;-62
2023/04/08 10:50:15;;;;;;;31.70;18.80;;;;;;;10.51;86.83;101626.16;111139;1212;99135;-61
2023/04/08 10:52:47;;;;;;;28.90;18.30;;;;;;;10.65;86.63;101625.40;111124;1206;107579;-60
2023/04/08 10:55:13;;;;;;;28.30;17.80;;;;;;;10.80;86.69;101623.00;110899;1206;139390;-63
2023/04/08 10:57:42;;;;;;;27.10;16.80;;;;;;;10.97;86.63;101621.24;111087;1206;98931;-59
2023/04/08 11:00:11;;;;;;;28.10;16.20;;;;;;;10.98;85.77;101622.84;110822;1218;139599;-59
2023/04/08 11:02:39;;;;;;;25.00;14.70;;;;;;;10.94;85.49;101625.63;110994;1206;100115;-59